sensor_id;sensor_type;location;lat;lon;timestamp;P1;durP1;ratioP1;P2;durP2;ratioP2
68509;SDS011;55512;50.102;19.958;2024-03-02T00:01:55;34.90;;;18.90;;
68509;SDS011;55512;50.102;19.958;2024-03-02T00:04:21;35.20;;;18.30;;
68509;SDS011;55512;50.102;19.958;2024-03-02T00:07:00;35.50;;;18.80;;
68509;SDS011;55512;50.102;19.958;2024-03-02T00:09:29;32.10;;;17.70;;
68509;SDS011;55512;50.102;19.958;2024-03-02T00:12:03;35.70;;;18.80;;
68509;SDS011;55512;50.102;19.958;2024-03-02T00:14:29;34.30;;;17.80;;
68509;SDS011;55512;50.102;19.958;2024-03-02T00:16:56;33.40;;;18.30;;
68509;SDS011;55512;50.102;19.958;2024-03-02T00:19:38;32.20;;;17.80;;
68509;SDS011;55512;50.102;19.958;2024-03-02T00:22:10;36.10;;;18.70;;
68509;SDS011;55512;50.102;19.958;2024-03-02T00:24:36;37.20;;;19.10;;
68509;SDS011;55512;50.102;19.958;2024-03-02T00:27:04;33.80;;;17.10;;
68509;SDS011;55512;50.102;19.958;2024-03-02T00:29:35;33.10;;;17.60;;
68509;SDS011;55512;50.102;19.958;2024-03-02T00:32:01;33.90;;;18.00;;
68509;SDS011;55512;50.102;19.958;2024-03-02T00:34:27;33.90;;;18.70;;
68509;SDS011;55512;50.102;19.958;2024-03-02T00:37:01;38.50;;;19.30;;
68509;SDS011;55512;50.102;19.958;2024-03-02T00:39:27;35.10;;;18.30;;
68509;SDS011;55512;50.102;19.958;2024-03-02T00:41:57;31.50;;;15.30;;
68509;SDS011;55512;50.102;19.958;2024-03-02T00:44:25;33.20;;;19.10;;
68509;SDS011;55512;50.102;19.958;2024-03-02T00:46:59;32.90;;;18.20;;
68509;SDS011;55512;50.102;19.958;2024-03-02T00:49:26;32.70;;;19.50;;
68509;SDS011;55512;50.102;19.958;2024-03-02T00:51:54;35.80;;;19.20;;
68509;SDS011;55512;50.102;19.958;2024-03-02T00:54:21;35.10;;;20.50;;
68509;SDS011;55512;50.102;19.958;2024-03-02T00:56:50;36.90;;;16.80;;
68509;SDS011;55512;50.102;19.958;2024-03-02T00:59:17;32.60;;;17.50;;
68509;SDS011;55512;50.102;19.958;2024-03-02T01:01:48;35.70;;;18.70;;
68509;SDS011;55512;50.102;19.958;2024-03-02T01:04:26;36.00;;;19.50;;
68509;SDS011;55512;50.102;19.958;2024-03-02T01:06:51;30.90;;;17.80;;
68509;SDS011;55512;50.102;19.958;2024-03-02T01:09:17;37.00;;;19.50;;
68509;SDS011;55512;50.102;19.958;2024-03-02T01:11:43;37.60;;;19.70;;
68509;SDS011;55512;50.102;19.958;2024-03-02T01:14:09;37.00;;;20.10;;
68509;SDS011;55512;50.102;19.958;2024-03-02T01:16:38;37.70;;;19.60;;
68509;SDS011;55512;50.102;19.958;2024-03-02T01:19:04;35.60;;;18.90;;
68509;SDS011;55512;50.102;19.958;2024-03-02T01:21:30;39.50;;;20.00;;
68509;SDS011;55512;50.102;19.958;2024-03-02T01:23:56;35.30;;;20.10;;
68509;SDS011;55512;50.102;19.958;2024-03-02T01:26:24;37.20;;;20.60;;
68509;SDS011;55512;50.102;19.958;2024-03-02T01:28:52;36.10;;;18.30;;
68509;SDS011;55512;50.102;19.958;2024-03-02T01:31:18;38.10;;;19.50;;
68509;SDS011;55512;50.102;19.958;2024-03-02T01:33:44;38.60;;;19.40;;
68509;SDS011;55512;50.102;19.958;2024-03-02T01:36:12;35.80;;;19.70;;
68509;SDS011;55512;50.102;19.958;2024-03-02T01:38:46;38.00;;;19.70;;
68509;SDS011;55512;50.102;19.958;2024-03-02T01:41:17;41.10;;;21.10;;
68509;SDS011;55512;50.102;19.958;2024-03-02T01:43:49;37.60;;;19.50;;
68509;SDS011;55512;50.102;19.958;2024-03-02T01:46:35;34.00;;;18.80;;
68509;SDS011;55512;50.102;19.958;2024-03-02T01:49:11;37.90;;;21.20;;
68509;SDS011;55512;50.102;19.958;2024-03-02T01:51:36;37.50;;;20.10;;
68509;SDS011;55512;50.102;19.958;2024-03-02T01:54:04;36.70;;;19.60;;
68509;SDS011;55512;50.102;19.958;2024-03-02T01:56:37;37.60;;;19.40;;
68509;SDS011;55512;50.102;19.958;2024-03-02T01:59:03;35.90;;;18.80;;
68509;SDS011;55512;50.102;19.958;2024-03-02T02:01:32;34.80;;;19.30;;
68509;SDS011;55512;50.102;19.958;2024-03-02T02:03:58;37.80;;;21.00;;
68509;SDS011;55512;50.102;19.958;2024-03-02T02:06:24;36.70;;;19.10;;
68509;SDS011;55512;50.102;19.958;2024-03-02T02:08:53;35.70;;;18.40;;
68509;SDS011;55512;50.102;19.958;2024-03-02T02:11:27;39.40;;;20.00;;
68509;SDS011;55512;50.102;19.958;2024-03-02T02:13:59;37.40;;;18.90;;
68509;SDS011;55512;50.102;19.958;2024-03-02T02:16:25;35.90;;;19.30;;
68509;SDS011;55512;50.102;19.958;2024-03-02T02:18:53;34.10;;;17.90;;
68509;SDS011;55512;50.102;19.958;2024-03-02T02:21:22;28.70;;;15.00;;
68509;SDS011;55512;50.102;19.958;2024-03-02T02:23:59;33.00;;;17.40;;
68509;SDS011;55512;50.102;19.958;2024-03-02T02:26:29;38.40;;;19.60;;
68509;SDS011;55512;50.102;19.958;2024-03-02T02:28:57;32.90;;;18.30;;
68509;SDS011;55512;50.102;19.958;2024-03-02T02:31:25;36.40;;;20.00;;
68509;SDS011;55512;50.102;19.958;2024-03-02T02:33:51;34.50;;;18.10;;
68509;SDS011;55512;50.102;19.958;2024-03-02T02:36:38;33.70;;;17.70;;
68509;SDS011;55512;50.102;19.958;2024-03-02T02:39:07;34.50;;;17.10;;
68509;SDS011;55512;50.102;19.958;2024-03-02T02:41:39;33.30;;;17.00;;
68509;SDS011;55512;50.102;19.958;2024-03-02T02:44:21;33.80;;;19.00;;
68509;SDS011;55512;50.102;19.958;2024-03-02T02:46:52;32.60;;;17.60;;
68509;SDS011;55512;50.102;19.958;2024-03-02T02:49:21;33.40;;;17.80;;
68509;SDS011;55512;50.102;19.958;2024-03-02T02:51:47;35.70;;;18.80;;
68509;SDS011;55512;50.102;19.958;2024-03-02T02:54:18;33.40;;;16.30;;
68509;SDS011;55512;50.102;19.958;2024-03-02T02:56:47;35.30;;;19.40;;
68509;SDS011;55512;50.102;19.958;2024-03-02T02:59:13;32.10;;;17.40;;
68509;SDS011;55512;50.102;19.958;2024-03-02T03:01:47;34.60;;;18.40;;
68509;SDS011;55512;50.102;19.958;2024-03-02T03:04:13;36.40;;;18.50;;
68509;SDS011;55512;50.102;19.958;2024-03-02T03:06:42;31.70;;;17.30;;
68509;SDS011;55512;50.102;19.958;2024-03-02T03:09:13;35.70;;;17.80;;
68509;SDS011;55512;50.102;19.958;2024-03-02T03:11:38;28.70;;;17.00;;
68509;SDS011;55512;50.102;19.958;2024-03-02T03:14:18;33.30;;;17.20;;
68509;SDS011;55512;50.102;19.958;2024-03-02T03:16:46;34.60;;;18.20;;
68509;SDS011;55512;50.102;19.958;2024-03-02T03:19:13;33.50;;;17.30;;
68509;SDS011;55512;50.102;19.958;2024-03-02T03:21:39;36.40;;;18.20;;
68509;SDS011;55512;50.102;19.958;2024-03-02T03:24:05;33.00;;;17.70;;
68509;SDS011;55512;50.102;19.958;2024-03-02T03:26:31;38.40;;;18.80;;
68509;SDS011;55512;50.102;19.958;2024-03-02T03:28:57;34.00;;;17.70;;
68509;SDS011;55512;50.102;19.958;2024-03-02T03:31:29;33.50;;;16.60;;
68509;SDS011;55512;50.102;19.958;2024-03-02T03:34:17;35.30;;;18.90;;
68509;SDS011;55512;50.102;19.958;2024-03-02T03:36:56;30.60;;;16.50;;
68509;SDS011;55512;50.102;19.958;2024-03-02T03:39:53;28.80;;;15.80;;
68509;SDS011;55512;50.102;19.958;2024-03-02T03:42:42;29.30;;;16.10;;
68509;SDS011;55512;50.102;19.958;2024-03-02T03:45:08;31.10;;;16.90;;
68509;SDS011;55512;50.102;19.958;2024-03-02T03:47:37;33.90;;;18.00;;
68509;SDS011;55512;50.102;19.958;2024-03-02T03:50:07;31.60;;;17.80;;
68509;SDS011;55512;50.102;19.958;2024-03-02T03:52:33;32.40;;;16.80;;
68509;SDS011;55512;50.102;19.958;2024-03-02T03:54:59;31.30;;;17.70;;
68509;SDS011;55512;50.102;19.958;2024-03-02T03:57:37;31.50;;;16.80;;
68509;SDS011;55512;50.102;19.958;2024-03-02T04:00:03;33.20;;;17.90;;
68509;SDS011;55512;50.102;19.958;2024-03-02T04:02:35;34.90;;;17.20;;
68509;SDS011;55512;50.102;19.958;2024-03-02T04:09:13;33.50;;;15.00;;
68509;SDS011;55512;50.102;19.958;2024-03-02T04:11:39;31.40;;;16.20;;
68509;SDS011;55512;50.102;19.958;2024-03-02T04:14:10;29.30;;;15.60;;
68509;SDS011;55512;50.102;19.958;2024-03-02T04:16:39;29.80;;;16.00;;
68509;SDS011;55512;50.102;19.958;2024-03-02T04:19:07;31.40;;;15.60;;
68509;SDS011;55512;50.102;19.958;2024-03-02T04:21:35;30.90;;;16.50;;
68509;SDS011;55512;50.102;19.958;2024-03-02T04:24:02;31.70;;;16.40;;
68509;SDS011;55512;50.102;19.958;2024-03-02T04:26:28;31.40;;;15.90;;
68509;SDS011;55512;50.102;19.958;2024-03-02T04:28:54;34.90;;;17.20;;
68509;SDS011;55512;50.102;19.958;2024-03-02T04:31:22;30.30;;;15.10;;
68509;SDS011;55512;50.102;19.958;2024-03-02T04:33:54;27.40;;;15.00;;
68509;SDS011;55512;50.102;19.958;2024-03-02T04:36:20;31.50;;;16.40;;
68509;SDS011;55512;50.102;19.958;2024-03-02T04:38:52;30.10;;;16.30;;
68509;SDS011;55512;50.102;19.958;2024-03-02T04:41:19;30.20;;;15.80;;
68509;SDS011;55512;50.102;19.958;2024-03-02T04:43:44;29.10;;;15.00;;
68509;SDS011;55512;50.102;19.958;2024-03-02T04:46:13;29.70;;;15.00;;
68509;SDS011;55512;50.102;19.958;2024-03-02T04:48:44;28.50;;;15.50;;
68509;SDS011;55512;50.102;19.958;2024-03-02T04:51:10;27.70;;;14.50;;
68509;SDS011;55512;50.102;19.958;2024-03-02T04:53:41;34.20;;;18.30;;
68509;SDS011;55512;50.102;19.958;2024-03-02T04:56:09;34.30;;;17.40;;
68509;SDS011;55512;50.102;19.958;2024-03-02T04:58:53;28.40;;;15.50;;
68509;SDS011;55512;50.102;19.958;2024-03-02T05:01:25;28.40;;;15.20;;
68509;SDS011;55512;50.102;19.958;2024-03-02T05:03:50;33.90;;;16.30;;
68509;SDS011;55512;50.102;19.958;2024-03-02T05:06:19;33.30;;;16.20;;
68509;SDS011;55512;50.102;19.958;2024-03-02T05:08:45;30.10;;;16.40;;
68509;SDS011;55512;50.102;19.958;2024-03-02T05:11:13;30.90;;;17.10;;
68509;SDS011;55512;50.102;19.958;2024-03-02T05:14:14;28.80;;;15.10;;
68509;SDS011;55512;50.102;19.958;2024-03-02T05:16:40;30.90;;;15.50;;
68509;SDS011;55512;50.102;19.958;2024-03-02T05:19:09;33.10;;;16.30;;
68509;SDS011;55512;50.102;19.958;2024-03-02T05:21:34;31.40;;;15.90;;
68509;SDS011;55512;50.102;19.958;2024-03-02T05:24:01;31.20;;;16.20;;
68509;SDS011;55512;50.102;19.958;2024-03-02T05:26:29;35.80;;;17.50;;
68509;SDS011;55512;50.102;19.958;2024-03-02T05:28:58;31.70;;;16.20;;
68509;SDS011;55512;50.102;19.958;2024-03-02T05:31:26;30.90;;;15.20;;
68509;SDS011;55512;50.102;19.958;2024-03-02T05:33:54;34.70;;;15.60;;
68509;SDS011;55512;50.102;19.958;2024-03-02T05:36:20;31.90;;;15.50;;
68509;SDS011;55512;50.102;19.958;2024-03-02T05:38:49;33.00;;;16.70;;
68509;SDS011;55512;50.102;19.958;2024-03-02T05:41:18;27.90;;;15.60;;
68509;SDS011;55512;50.102;19.958;2024-03-02T05:43:46;31.00;;;16.40;;
68509;SDS011;55512;50.102;19.958;2024-03-02T05:46:12;31.70;;;16.80;;
68509;SDS011;55512;50.102;19.958;2024-03-02T05:48:38;28.40;;;15.60;;
68509;SDS011;55512;50.102;19.958;2024-03-02T05:51:09;31.80;;;17.00;;
68509;SDS011;55512;50.102;19.958;2024-03-02T05:53:35;30.60;;;15.70;;
68509;SDS011;55512;50.102;19.958;2024-03-02T05:56:04;30.50;;;16.40;;
68509;SDS011;55512;50.102;19.958;2024-03-02T05:58:31;27.60;;;15.10;;
68509;SDS011;55512;50.102;19.958;2024-03-02T06:01:19;26.30;;;14.00;;
68509;SDS011;55512;50.102;19.958;2024-03-02T06:03:47;36.70;;;17.80;;
68509;SDS011;55512;50.102;19.958;2024-03-02T06:06:15;33.70;;;17.10;;
68509;SDS011;55512;50.102;19.958;2024-03-02T06:08:41;37.80;;;19.10;;
68509;SDS011;55512;50.102;19.958;2024-03-02T06:11:07;38.60;;;19.90;;
68509;SDS011;55512;50.102;19.958;2024-03-02T06:13:33;36.40;;;19.90;;
68509;SDS011;55512;50.102;19.958;2024-03-02T06:15:59;35.30;;;19.50;;
68509;SDS011;55512;50.102;19.958;2024-03-02T06:18:24;24.30;;;13.80;;
68509;SDS011;55512;50.102;19.958;2024-03-02T06:20:50;29.90;;;16.10;;
68509;SDS011;55512;50.102;19.958;2024-03-02T06:23:15;33.60;;;18.40;;
68509;SDS011;55512;50.102;19.958;2024-03-02T06:25:41;32.50;;;16.70;;
68509;SDS011;55512;50.102;19.958;2024-03-02T06:28:06;34.20;;;18.30;;
68509;SDS011;55512;50.102;19.958;2024-03-02T06:30:32;30.20;;;16.80;;
68509;SDS011;55512;50.102;19.958;2024-03-02T06:32:58;32.20;;;16.50;;
68509;SDS011;55512;50.102;19.958;2024-03-02T06:35:23;33.00;;;17.00;;
68509;SDS011;55512;50.102;19.958;2024-03-02T06:37:49;30.10;;;16.20;;
68509;SDS011;55512;50.102;19.958;2024-03-02T06:40:16;31.00;;;17.00;;
68509;SDS011;55512;50.102;19.958;2024-03-02T06:42:41;30.00;;;16.40;;
68509;SDS011;55512;50.102;19.958;2024-03-02T06:45:07;30.30;;;15.00;;
68509;SDS011;55512;50.102;19.958;2024-03-02T06:47:33;29.40;;;14.90;;
68509;SDS011;55512;50.102;19.958;2024-03-02T06:49:59;31.80;;;16.00;;
68509;SDS011;55512;50.102;19.958;2024-03-02T06:52:24;28.60;;;16.10;;
68509;SDS011;55512;50.102;19.958;2024-03-02T06:54:50;29.00;;;15.60;;
68509;SDS011;55512;50.102;19.958;2024-03-02T06:57:16;30.70;;;15.60;;
68509;SDS011;55512;50.102;19.958;2024-03-02T06:59:42;31.30;;;16.00;;
68509;SDS011;55512;50.102;19.958;2024-03-02T07:02:10;30.20;;;16.40;;
68509;SDS011;55512;50.102;19.958;2024-03-02T07:04:36;30.80;;;16.60;;
68509;SDS011;55512;50.102;19.958;2024-03-02T07:07:02;31.00;;;16.60;;
68509;SDS011;55512;50.102;19.958;2024-03-02T07:09:28;29.40;;;15.90;;
68509;SDS011;55512;50.102;19.958;2024-03-02T07:11:53;32.90;;;16.60;;
68509;SDS011;55512;50.102;19.958;2024-03-02T07:14:19;36.70;;;19.00;;
68509;SDS011;55512;50.102;19.958;2024-03-02T07:16:48;31.30;;;17.20;;
68509;SDS011;55512;50.102;19.958;2024-03-02T07:19:22;32.90;;;16.50;;
68509;SDS011;55512;50.102;19.958;2024-03-02T07:21:48;29.80;;;17.00;;
68509;SDS011;55512;50.102;19.958;2024-03-02T07:24:27;29.80;;;17.10;;
68509;SDS011;55512;50.102;19.958;2024-03-02T07:26:55;33.50;;;17.20;;
68509;SDS011;55512;50.102;19.958;2024-03-02T07:29:21;27.90;;;15.80;;
68509;SDS011;55512;50.102;19.958;2024-03-02T07:31:47;29.90;;;15.80;;
68509;SDS011;55512;50.102;19.958;2024-03-02T07:34:13;29.60;;;16.30;;
68509;SDS011;55512;50.102;19.958;2024-03-02T07:36:52;30.10;;;16.20;;
68509;SDS011;55512;50.102;19.958;2024-03-02T07:39:20;26.60;;;16.30;;
68509;SDS011;55512;50.102;19.958;2024-03-02T07:41:46;28.30;;;16.50;;
68509;SDS011;55512;50.102;19.958;2024-03-02T07:44:16;29.70;;;15.70;;
68509;SDS011;55512;50.102;19.958;2024-03-02T07:46:45;28.90;;;15.50;;
68509;SDS011;55512;50.102;19.958;2024-03-02T07:49:20;30.00;;;16.10;;
68509;SDS011;55512;50.102;19.958;2024-03-02T07:51:46;32.00;;;16.40;;
68509;SDS011;55512;50.102;19.958;2024-03-02T07:54:12;30.90;;;16.40;;
68509;SDS011;55512;50.102;19.958;2024-03-02T07:56:38;28.30;;;15.30;;
68509;SDS011;55512;50.102;19.958;2024-03-02T07:59:04;28.50;;;14.90;;
68509;SDS011;55512;50.102;19.958;2024-03-02T08:01:31;29.80;;;15.20;;
68509;SDS011;55512;50.102;19.958;2024-03-02T08:03:59;32.50;;;16.40;;
68509;SDS011;55512;50.102;19.958;2024-03-02T08:06:29;28.60;;;15.60;;
68509;SDS011;55512;50.102;19.958;2024-03-02T08:08:56;26.20;;;15.40;;
68509;SDS011;55512;50.102;19.958;2024-03-02T08:11:37;28.40;;;15.10;;
68509;SDS011;55512;50.102;19.958;2024-03-02T08:14:05;29.00;;;15.40;;
68509;SDS011;55512;50.102;19.958;2024-03-02T08:16:31;30.10;;;16.30;;
68509;SDS011;55512;50.102;19.958;2024-03-02T08:19:09;29.20;;;14.80;;
68509;SDS011;55512;50.102;19.958;2024-03-02T08:21:35;28.80;;;15.40;;
68509;SDS011;55512;50.102;19.958;2024-03-02T08:24:02;29.40;;;16.00;;
68509;SDS011;55512;50.102;19.958;2024-03-02T08:26:28;27.20;;;15.20;;
68509;SDS011;55512;50.102;19.958;2024-03-02T08:29:01;31.70;;;17.90;;
68509;SDS011;55512;50.102;19.958;2024-03-02T08:31:29;27.80;;;15.20;;
68509;SDS011;55512;50.102;19.958;2024-03-02T08:33:55;31.90;;;16.30;;
68509;SDS011;55512;50.102;19.958;2024-03-02T08:36:27;26.30;;;14.60;;
68509;SDS011;55512;50.102;19.958;2024-03-02T08:38:52;29.80;;;15.70;;
68509;SDS011;55512;50.102;19.958;2024-03-02T08:41:25;26.70;;;14.90;;
68509;SDS011;55512;50.102;19.958;2024-03-02T08:43:52;30.20;;;16.20;;
68509;SDS011;55512;50.102;19.958;2024-03-02T08:46:20;26.60;;;14.90;;
68509;SDS011;55512;50.102;19.958;2024-03-02T08:48:46;30.50;;;16.30;;
68509;SDS011;55512;50.102;19.958;2024-03-02T08:51:12;28.10;;;15.60;;
68509;SDS011;55512;50.102;19.958;2024-03-02T08:53:41;29.10;;;15.50;;
68509;SDS011;55512;50.102;19.958;2024-03-02T08:56:13;28.10;;;15.70;;
68509;SDS011;55512;50.102;19.958;2024-03-02T08:58:38;29.60;;;15.90;;
68509;SDS011;55512;50.102;19.958;2024-03-02T09:01:04;27.70;;;16.00;;
68509;SDS011;55512;50.102;19.958;2024-03-02T09:03:34;26.30;;;15.60;;
68509;SDS011;55512;50.102;19.958;2024-03-02T09:06:01;28.80;;;16.30;;
68509;SDS011;55512;50.102;19.958;2024-03-02T09:08:29;28.20;;;16.20;;
68509;SDS011;55512;50.102;19.958;2024-03-02T09:10:59;28.20;;;15.60;;
68509;SDS011;55512;50.102;19.958;2024-03-02T09:13:27;27.50;;;15.00;;
68509;SDS011;55512;50.102;19.958;2024-03-02T09:15:53;27.10;;;15.70;;
68509;SDS011;55512;50.102;19.958;2024-03-02T09:18:18;27.30;;;14.60;;
68509;SDS011;55512;50.102;19.958;2024-03-02T09:20:44;28.10;;;15.60;;
68509;SDS011;55512;50.102;19.958;2024-03-02T09:23:11;28.60;;;15.40;;
68509;SDS011;55512;50.102;19.958;2024-03-02T09:25:40;32.40;;;17.00;;
68509;SDS011;55512;50.102;19.958;2024-03-02T09:28:15;30.00;;;16.00;;
68509;SDS011;55512;50.102;19.958;2024-03-02T09:30:41;28.00;;;15.00;;
68509;SDS011;55512;50.102;19.958;2024-03-02T09:33:07;27.10;;;15.10;;
68509;SDS011;55512;50.102;19.958;2024-03-02T09:38:24;27.00;;;15.90;;
68509;SDS011;55512;50.102;19.958;2024-03-02T09:40:53;28.30;;;16.00;;
68509;SDS011;55512;50.102;19.958;2024-03-02T09:43:24;28.10;;;16.10;;
68509;SDS011;55512;50.102;19.958;2024-03-02T09:46:03;24.90;;;14.70;;
68509;SDS011;55512;50.102;19.958;2024-03-02T09:48:29;26.90;;;15.20;;
68509;SDS011;55512;50.102;19.958;2024-03-02T09:50:55;30.00;;;16.30;;
68509;SDS011;55512;50.102;19.958;2024-03-02T09:53:22;26.00;;;14.90;;
68509;SDS011;55512;50.102;19.958;2024-03-02T09:56:02;27.90;;;16.20;;
68509;SDS011;55512;50.102;19.958;2024-03-02T09:59:07;27.60;;;15.60;;
68509;SDS011;55512;50.102;19.958;2024-03-02T10:02:20;26.60;;;15.90;;
68509;SDS011;55512;50.102;19.958;2024-03-02T10:04:49;28.10;;;14.90;;
68509;SDS011;55512;50.102;19.958;2024-03-02T10:07:27;32.80;;;16.10;;
68509;SDS011;55512;50.102;19.958;2024-03-02T10:09:56;27.40;;;15.10;;
68509;SDS011;55512;50.102;19.958;2024-03-02T10:12:45;29.20;;;16.50;;
68509;SDS011;55512;50.102;19.958;2024-03-02T10:15:11;27.80;;;15.30;;
68509;SDS011;55512;50.102;19.958;2024-03-02T10:17:37;26.40;;;15.70;;
68509;SDS011;55512;50.102;19.958;2024-03-02T10:20:22;28.00;;;16.40;;
68509;SDS011;55512;50.102;19.958;2024-03-02T10:22:51;27.20;;;15.50;;
68509;SDS011;55512;50.102;19.958;2024-03-02T10:25:49;26.30;;;16.00;;
68509;SDS011;55512;50.102;19.958;2024-03-02T10:28:17;25.10;;;16.00;;
68509;SDS011;55512;50.102;19.958;2024-03-02T10:30:47;26.20;;;14.20;;
68509;SDS011;55512;50.102;19.958;2024-03-02T10:33:14;26.50;;;15.40;;
68509;SDS011;55512;50.102;19.958;2024-03-02T10:35:41;26.90;;;14.80;;
68509;SDS011;55512;50.102;19.958;2024-03-02T10:38:11;26.60;;;16.20;;
68509;SDS011;55512;50.102;19.958;2024-03-02T10:40:37;28.00;;;15.90;;
68509;SDS011;55512;50.102;19.958;2024-03-02T10:43:06;27.80;;;16.80;;
68509;SDS011;55512;50.102;19.958;2024-03-02T10:45:36;28.70;;;15.60;;
68509;SDS011;55512;50.102;19.958;2024-03-02T10:48:04;28.60;;;15.90;;
68509;SDS011;55512;50.102;19.958;2024-03-02T10:50:31;30.60;;;16.50;;
68509;SDS011;55512;50.102;19.958;2024-03-02T10:52:57;26.80;;;15.50;;
68509;SDS011;55512;50.102;19.958;2024-03-02T10:55:23;26.10;;;15.40;;
68509;SDS011;55512;50.102;19.958;2024-03-02T10:57:53;28.80;;;15.80;;
68509;SDS011;55512;50.102;19.958;2024-03-02T11:00:24;29.50;;;15.60;;
68509;SDS011;55512;50.102;19.958;2024-03-02T11:03:05;21.30;;;11.80;;
68509;SDS011;55512;50.102;19.958;2024-03-02T11:05:34;27.80;;;15.80;;
68509;SDS011;55512;50.102;19.958;2024-03-02T11:08:17;28.70;;;16.60;;
68509;SDS011;55512;50.102;19.958;2024-03-02T11:10:56;26.40;;;16.20;;
68509;SDS011;55512;50.102;19.958;2024-03-02T11:13:33;26.20;;;14.70;;
68509;SDS011;55512;50.102;19.958;2024-03-02T11:16:05;27.10;;;15.90;;
68509;SDS011;55512;50.102;19.958;2024-03-02T11:18:39;27.60;;;15.90;;
68509;SDS011;55512;50.102;19.958;2024-03-02T11:21:07;28.90;;;16.20;;
68509;SDS011;55512;50.102;19.958;2024-03-02T11:23:34;26.10;;;16.30;;
68509;SDS011;55512;50.102;19.958;2024-03-02T11:26:19;27.30;;;15.90;;
68509;SDS011;55512;50.102;19.958;2024-03-02T11:28:46;26.90;;;15.80;;
68509;SDS011;55512;50.102;19.958;2024-03-02T11:31:12;25.20;;;15.80;;
68509;SDS011;55512;50.102;19.958;2024-03-02T11:33:40;27.60;;;16.90;;
68509;SDS011;55512;50.102;19.958;2024-03-02T11:36:07;27.90;;;16.60;;
68509;SDS011;55512;50.102;19.958;2024-03-02T11:38:34;27.20;;;17.00;;
68509;SDS011;55512;50.102;19.958;2024-03-02T11:41:10;28.50;;;16.10;;
68509;SDS011;55512;50.102;19.958;2024-03-02T11:43:38;27.70;;;16.50;;
68509;SDS011;55512;50.102;19.958;2024-03-02T11:46:07;26.80;;;17.00;;
68509;SDS011;55512;50.102;19.958;2024-03-02T11:48:35;27.40;;;16.40;;
68509;SDS011;55512;50.102;19.958;2024-03-02T11:51:02;25.20;;;15.70;;
68509;SDS011;55512;50.102;19.958;2024-03-02T11:53:28;27.30;;;16.60;;
68509;SDS011;55512;50.102;19.958;2024-03-02T11:55:58;29.00;;;17.70;;
68509;SDS011;55512;50.102;19.958;2024-03-02T11:58:24;28.60;;;16.30;;
68509;SDS011;55512;50.102;19.958;2024-03-02T12:00:54;31.20;;;17.20;;
68509;SDS011;55512;50.102;19.958;2024-03-02T12:03:22;28.50;;;18.00;;
68509;SDS011;55512;50.102;19.958;2024-03-02T12:05:50;29.90;;;17.80;;
68509;SDS011;55512;50.102;19.958;2024-03-02T12:08:30;28.70;;;18.20;;
68509;SDS011;55512;50.102;19.958;2024-03-02T12:11:04;28.30;;;17.70;;
68509;SDS011;55512;50.102;19.958;2024-03-02T12:13:40;30.40;;;17.70;;
68509;SDS011;55512;50.102;19.958;2024-03-02T12:16:32;27.30;;;18.10;;
68509;SDS011;55512;50.102;19.958;2024-03-02T12:18:58;28.40;;;17.50;;
68509;SDS011;55512;50.102;19.958;2024-03-02T12:21:27;30.30;;;18.50;;
68509;SDS011;55512;50.102;19.958;2024-03-02T12:23:53;31.80;;;19.20;;
68509;SDS011;55512;50.102;19.958;2024-03-02T12:26:19;30.90;;;19.20;;
68509;SDS011;55512;50.102;19.958;2024-03-02T12:28:48;30.50;;;18.50;;
68509;SDS011;55512;50.102;19.958;2024-03-02T12:31:14;30.30;;;18.20;;
68509;SDS011;55512;50.102;19.958;2024-03-02T12:33:51;32.10;;;18.40;;
68509;SDS011;55512;50.102;19.958;2024-03-02T12:36:19;31.70;;;18.20;;
68509;SDS011;55512;50.102;19.958;2024-03-02T12:39:09;29.30;;;19.10;;
68509;SDS011;55512;50.102;19.958;2024-03-02T12:41:38;29.60;;;17.60;;
68509;SDS011;55512;50.102;19.958;2024-03-02T12:44:07;33.40;;;18.80;;
68509;SDS011;55512;50.102;19.958;2024-03-02T12:46:33;45.70;;;29.10;;
68509;SDS011;55512;50.102;19.958;2024-03-02T12:49:12;34.10;;;20.60;;
68509;SDS011;55512;50.102;19.958;2024-03-02T12:51:43;32.80;;;20.00;;
68509;SDS011;55512;50.102;19.958;2024-03-02T12:54:12;31.90;;;19.60;;
68509;SDS011;55512;50.102;19.958;2024-03-02T12:56:50;24.30;;;15.30;;
68509;SDS011;55512;50.102;19.958;2024-03-02T12:59:22;31.30;;;17.70;;
68509;SDS011;55512;50.102;19.958;2024-03-02T13:01:55;31.20;;;18.30;;
68509;SDS011;55512;50.102;19.958;2024-03-02T13:04:31;29.60;;;18.20;;
68509;SDS011;55512;50.102;19.958;2024-03-02T13:07:02;25.00;;;14.90;;
68509;SDS011;55512;50.102;19.958;2024-03-02T13:09:31;29.30;;;17.60;;
68509;SDS011;55512;50.102;19.958;2024-03-02T13:12:17;31.40;;;17.10;;
68509;SDS011;55512;50.102;19.958;2024-03-02T13:14:48;29.70;;;17.10;;
68509;SDS011;55512;50.102;19.958;2024-03-02T13:21:14;30.30;;;16.60;;
68509;SDS011;55512;50.102;19.958;2024-03-02T13:24:14;28.30;;;16.10;;
68509;SDS011;55512;50.102;19.958;2024-03-02T13:27:00;25.30;;;15.10;;
68509;SDS011;55512;50.102;19.958;2024-03-02T13:29:35;38.20;;;21.80;;
68509;SDS011;55512;50.102;19.958;2024-03-02T13:32:50;31.00;;;18.20;;
68509;SDS011;55512;50.102;19.958;2024-03-02T13:42:26;28.50;;;16.30;;
68509;SDS011;55512;50.102;19.958;2024-03-02T13:44:55;29.90;;;17.40;;
68509;SDS011;55512;50.102;19.958;2024-03-02T13:48:14;27.10;;;16.00;;
68509;SDS011;55512;50.102;19.958;2024-03-02T13:50:51;32.10;;;16.80;;
68509;SDS011;55512;50.102;19.958;2024-03-02T13:53:42;33.20;;;18.30;;
68509;SDS011;55512;50.102;19.958;2024-03-02T13:56:28;29.50;;;17.30;;
68509;SDS011;55512;50.102;19.958;2024-03-02T13:58:59;29.50;;;17.30;;
68509;SDS011;55512;50.102;19.958;2024-03-02T14:01:36;28.80;;;17.10;;
68509;SDS011;55512;50.102;19.958;2024-03-02T14:04:11;31.80;;;17.20;;
68509;SDS011;55512;50.102;19.958;2024-03-02T14:06:59;28.70;;;17.70;;
68509;SDS011;55512;50.102;19.958;2024-03-02T14:09:28;26.60;;;16.40;;
68509;SDS011;55512;50.102;19.958;2024-03-02T14:11:55;32.20;;;20.00;;
68509;SDS011;55512;50.102;19.958;2024-03-02T14:14:24;28.20;;;17.40;;
68509;SDS011;55512;50.102;19.958;2024-03-02T14:16:58;28.80;;;17.00;;
68509;SDS011;55512;50.102;19.958;2024-03-02T14:19:40;25.80;;;16.60;;
68509;SDS011;55512;50.102;19.958;2024-03-02T14:22:09;31.40;;;17.90;;
68509;SDS011;55512;50.102;19.958;2024-03-02T14:24:34;27.00;;;15.90;;
68509;SDS011;55512;50.102;19.958;2024-03-02T14:27:00;28.40;;;16.70;;
68509;SDS011;55512;50.102;19.958;2024-03-02T14:29:30;28.90;;;16.90;;
68509;SDS011;55512;50.102;19.958;2024-03-02T14:31:58;29.30;;;17.80;;
68509;SDS011;55512;50.102;19.958;2024-03-02T14:34:39;31.20;;;16.90;;
68509;SDS011;55512;50.102;19.958;2024-03-02T14:37:04;30.20;;;17.70;;
68509;SDS011;55512;50.102;19.958;2024-03-02T14:39:33;31.50;;;17.90;;
68509;SDS011;55512;50.102;19.958;2024-03-02T14:42:00;29.80;;;17.00;;
68509;SDS011;55512;50.102;19.958;2024-03-02T14:44:27;30.40;;;17.60;;
68509;SDS011;55512;50.102;19.958;2024-03-02T14:46:52;29.20;;;17.70;;